Time;durP1;ratioP1;P1;durP2;ratioP2;P2;SDS_P1;SDS_P2;PMS_P1;PMS_P2;Temp;Humidity;BMP_temperature;BMP_pressure;BME280_temperature;BME280_humidity;BME280_pressure;Samples;Min_cycle;Max_cycle;Signal;HPM_P1;HPM_P2
2022/03/28 00:02:08;;;;;;;31.67;4.47;;;;;;;8.87;77.56;102728.88;5074040;28;20372;-31
2022/03/28 00:04:33;;;;;;;27.63;4.32;;;;;;;8.84;78.12;102720.22;5074819;28;20564;-31
2022/03/28 00:06:58;;;;;;;32.65;5.22;;;;;;;8.82;78.41;102722.16;5073821;28;20530;-30
2022/03/28 00:09:24;;;;;;;28.30;4.53;;;;;;;8.76;78.49;102729.72;5065253;28;20485;-30
2022/03/28 00:11:49;;;;;;;39.40;4.93;;;;;;;8.75;78.70;102727.19;5066720;28;20112;-30
2022/03/28 00:14:15;;;;;;;33.38;4.85;;;;;;;8.74;78.72;102726.34;5072703;28;20033;-32
2022/03/28 00:16:40;;;;;;;28.55;4.75;;;;;;;8.72;79.35;102724.75;5072349;28;20033;-31
2022/03/28 00:19:05;;;;;;;30.02;4.47;;;;;;;8.72;79.20;102722.06;5073986;28;20103;-29
2022/03/28 00:21:31;;;;;;;29.90;4.25;;;;;;;8.67;79.32;102716.22;5072787;28;20033;-30
2022/03/28 00:23:56;;;;;;;36.08;5.32;;;;;;;8.64;79.78;102719.16;5073815;28;20428;-31
2022/03/28 00:26:22;;;;;;;26.75;3.97;;;;;;;8.64;79.95;102719.16;5073561;28;20654;-32
2022/03/28 00:28:47;;;;;;;31.98;4.63;;;;;;;8.62;79.81;102713.06;5073784;28;20025;-30
2022/03/28 00:31:13;;;;;;;25.08;4.53;;;;;;;8.59;79.97;102716.00;5073361;28;20117;-31
2022/03/28 00:33:39;;;;;;;35.30;6.95;;;;;;;8.57;80.13;102713.41;5073766;28;20020;-29
2022/03/28 00:36:04;;;;;;;30.75;4.90;;;;;;;8.54;80.20;102711.84;5073865;28;20439;-30
2022/03/28 00:38:30;;;;;;;24.42;4.55;;;;;;;8.49;80.38;102708.66;5074654;28;20525;-31
2022/03/28 00:40:55;;;;;;;37.10;6.28;;;;;;;8.47;80.71;102707.06;5073707;28;20364;-31
2022/03/28 00:43:21;;;;;;;27.63;4.70;;;;;;;8.39;81.03;102698.75;5073335;28;20077;-31
2022/03/28 00:45:46;;;;;;;26.30;4.45;;;;;;;8.29;81.31;102691.44;5073190;28;20122;-31
2022/03/28 00:48:12;;;;;;;27.40;5.22;;;;;;;8.36;81.12;102694.47;5052793;28;20029;-30
2022/03/28 00:50:38;;;;;;;34.28;4.97;;;;;;;8.31;81.44;102692.16;5073672;28;20442;-30
2022/03/28 00:53:05;;;;;;;26.80;4.45;;;;;;;8.30;81.50;102692.28;5073612;28;20086;-31
2022/03/28 00:55:31;;;;;;;26.33;4.80;;;;;;;8.34;81.37;102691.06;5072933;28;20021;-31
2022/03/28 00:57:56;;;;;;;29.25;4.32;;;;;;;8.26;81.57;102680.94;5073034;28;20081;-31
2022/03/28 01:00:22;;;;;;;30.25;5.75;;;;;;;8.28;81.73;102675.47;5073394;28;20036;-31
2022/03/28 01:02:47;;;;;;;28.25;5.03;;;;;;;8.28;81.64;102678.16;5073660;28;20033;-32
2022/03/28 01:05:13;;;;;;;36.90;5.47;;;;;;;8.27;81.77;102669.25;5073063;28;20025;-32
2022/03/28 01:07:42;;;;;;;39.92;5.78;;;;;;;8.21;81.53;102668.88;5073152;28;20041;-32
2022/03/28 01:10:12;;;;;;;27.73;5.03;;;;;;;8.20;81.75;102656.44;5073257;28;20694;-32
2022/03/28 01:12:42;;;;;;;34.50;5.90;;;;;;;8.19;81.95;102662.75;5072084;28;20029;-31
2022/03/28 01:15:09;;;;;;;37.60;5.10;;;;;;;8.07;81.93;102657.41;5073070;28;20036;-31
2022/03/28 01:20:18;;;;;;;28.00;4.93;;;;;;;8.09;82.34;102655.47;5073445;28;20101;-31
2022/03/28 01:22:43;;;;;;;30.00;5.20;;;;;;;8.07;82.35;102651.19;5073398;28;20115;-30
2022/03/28 01:25:09;;;;;;;31.63;4.38;;;;;;;8.12;82.40;102655.22;5072373;28;20115;-31
2022/03/28 01:27:37;;;;;;;40.70;6.10;;;;;;;8.12;82.33;102649.84;5072784;28;20162;-31
2022/03/28 01:30:04;;;;;;;31.25;5.78;;;;;;;8.08;82.20;102647.53;5072791;28;20039;-30
2022/03/28 01:32:30;;;;;;;35.22;4.97;;;;;;;8.04;82.15;102646.94;5072268;28;20102;-30
2022/03/28 01:34:55;;;;;;;24.52;5.40;;;;;;;8.04;82.33;102641.56;5053941;28;20478;-31
2022/03/28 01:37:21;;;;;;;35.40;5.55;;;;;;;8.05;82.08;102642.41;5052911;28;20032;-31
2022/03/28 01:39:46;;;;;;;32.72;5.45;;;;;;;8.03;82.17;102645.22;5052764;28;20040;-31
2022/03/28 01:42:11;;;;;;;35.08;5.43;;;;;;;7.96;82.42;102638.63;5052783;28;20031;-30
2022/03/28 01:44:37;;;;;;;40.10;5.53;;;;;;;7.98;82.38;102635.81;5070015;28;20036;-29
2022/03/28 01:47:02;;;;;;;32.55;5.18;;;;;;;7.95;82.49;102630.69;5072658;28;20362;-30
2022/03/28 01:49:27;;;;;;;27.30;5.05;;;;;;;7.93;82.57;102628.16;5072290;28;20086;-32
2022/03/28 01:51:53;;;;;;;32.72;5.72;;;;;;;7.88;82.33;102619.63;5071408;28;20075;-29
2022/03/28 01:54:18;;;;;;;34.28;5.18;;;;;;;7.78;82.62;102621.31;5066811;28;20468;-30
2022/03/28 01:56:44;;;;;;;30.75;5.47;;;;;;;7.81;82.93;102623.75;5067238;28;20020;-29
2022/03/28 01:59:10;;;;;;;31.27;6.45;;;;;;;7.79;82.78;102620.31;5071641;28;20029;-29
2022/03/28 02:01:36;;;;;;;41.63;5.93;;;;;;;7.75;83.09;102621.56;5071942;28;20410;-31
2022/03/28 02:04:02;;;;;;;28.35;5.88;;;;;;;7.73;82.76;102621.66;5071969;28;20032;-31
2022/03/28 02:06:28;;;;;;;31.73;6.00;;;;;;;7.69;83.13;102614.84;5183128;22;20021;-78
2022/03/28 02:08:53;;;;;;;30.08;5.97;;;;;;;7.66;83.17;102625.78;5057061;28;20094;-76
2022/03/28 02:11:19;;;;;;;41.58;6.47;;;;;;;7.68;83.32;102610.44;5093326;28;20157;-77
2022/03/28 02:13:44;;;;;;;38.83;5.70;;;;;;;7.65;83.00;102608.88;5091232;28;20028;-76
2022/03/28 02:16:10;;;;;;;38.47;5.57;;;;;;;7.70;82.96;102608.50;5090983;28;20039;-77
2022/03/28 02:18:35;;;;;;;34.95;5.75;;;;;;;7.66;82.86;102604.34;5091167;28;20031;-77
2022/03/28 02:21:01;;;;;;;23.80;4.75;;;;;;;7.59;83.15;102597.78;5091242;28;20593;-78
2022/03/28 02:23:27;;;;;;;35.80;5.07;;;;;;;7.54;83.36;102599.97;5091108;28;20439;-76
2022/03/28 02:25:52;;;;;;;28.02;5.32;;;;;;;7.51;83.40;102600.22;5092786;28;20024;-76
2022/03/28 02:28:18;;;;;;;24.42;4.90;;;;;;;7.46;83.46;102601.41;5092519;28;20173;-77
2022/03/28 02:30:43;;;;;;;26.25;5.28;;;;;;;7.43;83.54;102592.75;5092403;28;20039;-77
2022/03/28 02:33:09;;;;;;;32.60;5.85;;;;;;;7.38;83.78;102585.06;5092836;28;20028;-77
2022/03/28 02:35:34;;;;;;;25.10;5.65;;;;;;;7.42;83.81;102591.03;5092253;28;20028;-75
2022/03/28 02:38:03;;;;;;;37.30;6.05;;;;;;;7.43;83.79;102582.88;5092323;28;20024;-77
2022/03/28 02:40:29;;;;;;;39.75;7.13;;;;;;;7.32;83.72;102590.03;5093343;28;20379;-77
2022/03/28 02:42:58;;;;;;;34.30;6.30;;;;;;;7.32;84.31;102584.69;5092805;28;20021;-77
2022/03/28 02:45:28;;;;;;;34.03;5.60;;;;;;;7.31;84.24;102583.81;5091335;28;20444;-76
2022/03/28 02:47:54;;;;;;;35.00;5.35;;;;;;;7.36;83.88;102570.94;5092360;28;20039;-77
2022/03/28 02:50:19;;;;;;;32.45;5.55;;;;;;;7.34;83.56;102561.31;5092046;28;20148;-77
2022/03/28 02:52:44;;;;;;;37.13;6.20;;;;;;;7.29;83.94;102555.44;5092154;28;20149;-75
2022/03/28 02:55:10;;;;;;;30.13;5.60;;;;;;;7.20;84.07;102555.19;5093418;28;20052;-76
2022/03/28 02:57:36;;;;;;;32.22;6.65;;;;;;;7.14;84.24;102561.03;5093065;28;20111;-77
2022/03/28 03:00:04;;;;;;;44.97;7.10;;;;;;;7.14;84.70;102555.69;5075813;28;20166;-76
2022/03/28 03:02:29;;;;;;;31.53;6.47;;;;;;;7.07;84.63;102550.91;5099800;28;20020;-76
2022/03/28 03:04:54;;;;;;;30.52;6.35;;;;;;;7.11;84.68;102553.25;5081159;28;20365;-77
2022/03/28 03:07:20;;;;;;;29.33;6.13;;;;;;;7.14;84.39;102555.69;5071904;28;20094;-76
2022/03/28 03:09:47;;;;;;;37.30;6.32;;;;;;;7.09;84.49;102546.28;5074393;28;20032;-75
2022/03/28 03:12:13;;;;;;;34.40;6.25;;;;;;;7.06;84.61;102544.69;5074465;28;20032;-76
2022/03/28 03:14:38;;;;;;;35.72;6.40;;;;;;;7.02;84.74;102540.53;5074747;28;20090;-76
2022/03/28 03:17:04;;;;;;;34.67;7.03;;;;;;;6.97;84.91;102542.72;5068036;28;20421;-76
2022/03/28 03:19:29;;;;;;;25.60;5.93;;;;;;;6.99;84.77;102541.63;5054566;28;20081;-75
2022/03/28 03:21:54;;;;;;;23.25;5.72;;;;;;;6.96;84.67;102535.66;5072782;28;20452;-76
2022/03/28 03:24:20;;;;;;;31.52;6.95;;;;;;;6.97;84.84;102529.31;5071595;28;20048;-78
2022/03/28 03:26:45;;;;;;;33.90;7.18;;;;;;;6.96;84.64;102533.00;5071514;28;20388;-75
2022/03/28 03:29:11;;;;;;;31.88;7.32;;;;;;;6.94;84.62;102521.53;5071523;28;20059;-76
2022/03/28 03:31:37;;;;;;;28.15;6.85;;;;;;;6.87;84.59;102531.84;5071043;28;20025;-76
2022/03/28 03:34:02;;;;;;;26.75;7.00;;;;;;;6.85;84.59;102528.44;5071379;28;20448;-76
2022/03/28 03:36:27;;;;;;;33.00;6.18;;;;;;;6.79;84.48;102524.41;5071160;28;20029;-75
2022/03/28 03:38:54;;;;;;;31.55;6.53;;;;;;;6.85;84.75;102514.22;5071561;28;20537;-75
2022/03/28 03:41:19;;;;;;;29.25;6.53;;;;;;;6.79;84.59;102519.06;5071670;28;20380;-77
2022/03/28 03:43:44;;;;;;;31.65;6.63;;;;;;;6.74;84.79;102518.56;5071602;28;20035;-76
2022/03/28 03:46:10;;;;;;;29.70;7.28;;;;;;;6.71;84.92;102513.41;5071225;28;20489;-76
2022/03/28 03:48:36;;;;;;;32.80;7.18;;;;;;;6.68;85.14;102515.47;5071953;28;20020;-76
2022/03/28 03:51:01;;;;;;;34.75;6.47;;;;;;;6.69;85.20;102512.69;5071417;28;20361;-76
2022/03/28 03:53:27;;;;;;;29.70;6.65;;;;;;;6.71;84.96;102515.25;5071368;28;20463;-76
2022/03/28 03:55:52;;;;;;;35.03;7.05;;;;;;;6.72;84.91;102500.91;5073890;28;20040;-77
2022/03/28 03:58:17;;;;;;;29.50;7.15;;;;;;;6.67;84.99;102501.25;5075011;28;20044;-76
2022/03/28 04:00:42;;;;;;;36.03;7.32;;;;;;;6.65;85.02;102502.34;5075166;28;20218;-77
2022/03/28 04:03:08;;;;;;;29.85;7.60;;;;;;;6.60;85.14;102508.03;5074809;28;20112;-77
2022/03/28 04:05:37;;;;;;;35.00;7.22;;;;;;;6.56;85.32;102507.41;5074636;28;20103;-75
2022/03/28 04:08:06;;;;;;;35.08;8.50;;;;;;;6.56;85.69;102512.75;5075116;28;20051;-76
2022/03/28 04:10:32;;;;;;;36.22;7.68;;;;;;;6.61;85.25;102504.41;5075268;28;20024;-77
2022/03/28 04:12:57;;;;;;;26.88;7.22;;;;;;;6.54;85.26;102508.50;5078768;28;20150;-76
2022/03/28 04:15:22;;;;;;;33.90;7.88;;;;;;;6.46;85.46;102511.75;5082359;28;20416;-77
2022/03/28 04:17:48;;;;;;;29.42;7.43;;;;;;;6.39;85.98;102510.47;5075798;28;20105;-76
2022/03/28 04:20:15;;;;;;;27.85;7.95;;;;;;;6.48;85.88;102511.63;5075060;28;20029;-76
2022/03/28 04:22:41;;;;;;;29.92;7.55;;;;;;;6.46;85.62;102505.53;5073465;28;20144;-76
2022/03/28 04:25:08;;;;;;;27.38;7.20;;;;;;;6.50;85.55;102504.34;5073255;28;20055;-76
2022/03/28 04:27:35;;;;;;;26.67;7.88;;;;;;;6.44;85.69;102502.97;5074610;28;20031;-76
2022/03/28 04:30:03;;;;;;;31.55;7.75;;;;;;;6.50;85.75;102501.66;5074687;28;20100;-76
2022/03/28 04:32:28;;;;;;;32.53;7.72;;;;;;;6.44;85.79;102508.31;5077387;28;20024;-76
2022/03/28 04:34:54;;;;;;;27.70;8.00;;;;;;;6.40;85.65;102500.63;5079140;28;20100;-75
2022/03/28 04:37:19;;;;;;;24.90;7.30;;;;;;;6.38;86.03;102498.94;5075656;28;20411;-77
2022/03/28 04:39:44;;;;;;;38.53;8.57;;;;;;;6.46;86.14;102494.84;5075802;28;20024;-76
2022/03/28 04:42:10;;;;;;;32.58;8.88;;;;;;;6.51;85.65;102498.03;5079640;28;20103;-76
2022/03/28 04:44:35;;;;;;;29.17;7.88;;;;;;;6.49;85.25;102483.91;5079367;28;20035;-76
2022/03/28 04:47:00;;;;;;;26.38;8.35;;;;;;;6.47;85.47;102496.53;5080555;28;20492;-76
2022/03/28 04:49:26;;;;;;;33.50;8.40;;;;;;;6.40;85.75;102489.94;5078654;28;20093;-76
2022/03/28 04:51:51;;;;;;;27.95;10.15;;;;;;;6.40;86.05;102481.91;5076760;28;20503;-76
2022/03/28 04:54:16;;;;;;;29.77;9.55;;;;;;;6.41;86.65;102475.59;5078419;28;20031;-76
2022/03/28 04:56:43;;;;;;;24.92;9.55;;;;;;;6.37;86.76;102470.50;5077772;28;20102;-75
2022/03/28 04:59:09;;;;;;;31.38;10.63;;;;;;;6.34;87.08;102467.19;5080353;28;20464;-76
2022/03/28 05:01:34;;;;;;;25.10;10.55;;;;;;;6.30;87.24;102465.72;5077901;28;20024;-76
2022/03/28 05:03:59;;;;;;;34.10;11.90;;;;;;;6.25;87.88;102459.84;5077401;28;20040;-76
2022/03/28 05:06:25;;;;;;;31.63;11.35;;;;;;;6.27;87.73;102466.78;5076216;28;20024;-76
2022/03/28 05:08:50;;;;;;;28.98;12.73;;;;;;;6.24;88.12;102468.81;5079853;28;20069;-76
2022/03/28 05:11:16;;;;;;;31.75;12.10;;;;;;;6.22;88.05;102468.13;5082574;28;20300;-76
2022/03/28 05:13:41;;;;;;;42.83;14.68;;;;;;;6.31;88.41;102464.75;5078592;28;20032;-75
2022/03/28 05:16:06;;;;;;;30.30;12.95;;;;;;;6.27;88.45;102468.63;5078905;28;20024;-75
2022/03/28 05:18:34;;;;;;;28.85;13.45;;;;;;;6.25;88.71;102471.41;5084242;28;20032;-79
2022/03/28 05:21:00;;;;;;;36.78;14.02;;;;;;;6.30;88.96;102469.25;5074124;28;20131;-76
2022/03/28 05:23:26;;;;;;;43.85;14.18;;;;;;;6.21;89.02;102469.91;5078476;28;20071;-76
2022/03/28 05:25:51;;;;;;;32.25;13.48;;;;;;;6.12;89.24;102470.59;5081906;28;20082;-77
2022/03/28 05:28:16;;;;;;;35.25;14.88;;;;;;;6.13;89.42;102467.81;5074616;28;20044;-75
2022/03/28 05:30:42;;;;;;;39.78;14.13;;;;;;;6.12;89.69;102470.59;5076122;28;20089;-76
2022/03/28 05:33:07;;;;;;;47.30;14.00;;;;;;;6.06;89.61;102469.25;5081158;28;20460;-76
2022/03/28 05:35:34;;;;;;;43.72;14.27;;;;;;;6.03;90.13;102465.91;5085294;28;20111;-76
2022/03/28 05:38:00;;;;;;;48.55;14.85;;;;;;;6.07;90.00;102462.91;5084314;28;20033;-75
2022/03/28 05:40:25;;;;;;;35.47;14.52;;;;;;;6.10;89.93;102462.69;5081254;28;20034;-77
2022/03/28 05:42:50;;;;;;;47.72;15.32;;;;;;;6.10;89.49;102461.84;5081219;28;20056;-78
2022/03/28 05:45:16;;;;;;;44.88;14.88;;;;;;;6.15;89.71;102460.53;5079110;28;20063;-76
2022/03/28 05:47:41;;;;;;;42.05;14.52;;;;;;;6.24;89.37;102447.44;5077200;28;20090;-77
2022/03/28 05:50:08;;;;;;;43.10;16.15;;;;;;;6.24;89.38;102442.97;5075485;28;20047;-76
2022/03/28 05:52:33;;;;;;;38.67;16.20;;;;;;;6.25;89.48;102447.34;5074285;28;20025;-76
2022/03/28 05:54:58;;;;;;;45.20;15.10;;;;;;;6.26;89.82;102450.84;5076208;28;20047;-78
2022/03/28 05:57:24;;;;;;;41.40;16.45;;;;;;;6.32;90.03;102445.91;5077883;28;20035;-77
2022/03/28 05:59:49;;;;;;;43.83;15.68;;;;;;;6.35;90.20;102451.03;5073978;28;20177;-78
2022/03/28 06:02:14;;;;;;;39.38;15.95;;;;;;;6.32;89.68;102451.28;5072395;28;20028;-77
2022/03/28 06:04:39;;;;;;;36.03;16.63;;;;;;;6.32;89.50;102455.78;5073852;28;20032;-77
2022/03/28 06:07:05;;;;;;;34.15;15.63;;;;;;;6.33;89.61;102450.28;5073105;28;20047;-77
2022/03/28 06:09:30;;;;;;;33.13;15.98;;;;;;;6.27;89.44;102450.75;5071506;28;20033;-77
2022/03/28 06:11:55;;;;;;;38.90;14.95;;;;;;;6.22;89.82;102450.25;5072170;28;20036;-76
2022/03/28 06:14:21;;;;;;;65.15;15.57;;;;;;;6.18;89.79;102455.94;5071167;28;20401;-76
2022/03/28 06:16:46;;;;;;;30.60;15.02;;;;;;;6.13;90.14;102443.78;5070140;28;20016;-77
2022/03/28 06:19:12;;;;;;;61.42;15.15;;;;;;;6.12;90.48;102443.88;5072148;28;20032;-76
2022/03/28 06:21:37;;;;;;;41.67;15.13;;;;;;;6.12;90.76;102446.53;5072948;28;20460;-77
2022/03/28 06:24:03;;;;;;;37.03;15.00;;;;;;;6.19;90.52;102445.13;5073221;28;20028;-77
2022/03/28 06:26:29;;;;;;;47.45;16.58;;;;;;;6.23;90.25;102440.41;5073235;28;20032;-76
2022/03/28 06:28:54;;;;;;;31.83;14.98;;;;;;;6.31;90.38;102446.03;5074556;28;20032;-78
2022/03/28 06:31:19;;;;;;;27.25;13.50;;;;;;;6.28;90.20;102441.75;5071714;28;20027;-77
2022/03/28 06:33:45;;;;;;;26.90;14.00;;;;;;;6.37;89.88;102438.41;5078409;28;20031;-77
2022/03/28 06:36:10;;;;;;;27.20;13.60;;;;;;;6.53;90.13;102447.91;5076060;28;20032;-77
2022/03/28 06:38:36;;;;;;;27.15;12.43;;;;;;;6.41;88.67;102440.84;5056319;28;20439;-77
2022/03/28 06:41:02;;;;;;;25.25;12.02;;;;;;;6.51;87.78;102441.84;5052915;28;20119;-77
2022/03/28 06:43:28;;;;;;;23.45;12.65;;;;;;;6.49;86.91;102441.97;5052114;28;20029;-76
2022/03/28 06:45:53;;;;;;;24.23;12.23;;;;;;;6.59;86.98;102439.44;5052202;28;20116;-78
2022/03/28 06:48:19;;;;;;;21.92;12.38;;;;;;;6.69;87.05;102443.13;5052376;28;20039;-76
2022/03/28 06:50:45;;;;;;;27.75;13.48;;;;;;;6.93;87.26;102450.25;5064097;28;20051;-78
2022/03/28 06:53:10;;;;;;;22.25;12.68;;;;;;;7.16;85.87;102435.06;5072337;28;20025;-76
2022/03/28 06:55:36;;;;;;;24.42;11.00;;;;;;;7.12;84.17;102442.47;5074251;28;20035;-78
2022/03/28 06:58:01;;;;;;;23.90;11.50;;;;;;;7.09;84.09;102440.06;5076183;28;20120;-77
2022/03/28 07:00:26;;;;;;;20.67;11.52;;;;;;;7.12;83.74;102434.44;5075874;28;20062;-77
2022/03/28 07:02:52;;;;;;;25.58;12.27;;;;;;;7.25;83.86;102440.53;5070625;28;20173;-76
2022/03/28 07:05:17;;;;;;;25.35;12.00;;;;;;;7.18;83.23;102436.63;5071776;28;20052;-76
2022/03/28 07:07:44;;;;;;;27.17;12.30;;;;;;;7.10;82.97;102441.75;5071841;28;20498;-76
2022/03/28 07:10:11;;;;;;;20.73;11.52;;;;;;;6.95;83.51;102430.44;5071694;28;20024;-77
2022/03/28 07:12:37;;;;;;;23.48;12.40;;;;;;;6.89;83.92;102427.34;5072253;28;20025;-76
2022/03/28 07:15:02;;;;;;;37.08;12.80;;;;;;;7.01;84.88;102437.13;5072412;28;20025;-78
2022/03/28 07:17:28;;;;;;;25.15;12.93;;;;;;;7.07;84.80;102433.94;5070584;28;20031;-76
2022/03/28 07:19:53;;;;;;;26.50;13.38;;;;;;;7.02;84.67;102428.09;5072617;28;20028;-78
2022/03/28 07:22:18;;;;;;;40.95;14.10;;;;;;;7.14;84.87;102429.84;5071940;28;20391;-77
2022/03/28 07:24:44;;;;;;;33.63;13.85;;;;;;;7.36;84.61;102425.44;5072624;28;20032;-76
2022/03/28 07:27:09;;;;;;;60.28;13.98;;;;;;;7.22;83.49;102429.22;5071243;28;20132;-76
2022/03/28 07:29:34;;;;;;;39.17;14.43;;;;;;;7.18;83.88;102428.59;5072654;28;20029;-77
2022/03/28 07:32:00;;;;;;;32.08;14.48;;;;;;;7.07;84.23;102439.31;5077070;28;20058;-76
2022/03/28 07:34:32;;;;;;;28.25;14.65;;;;;;;7.26;84.37;102428.00;5075347;28;20440;-78
2022/03/28 07:36:58;;;;;;;33.65;15.00;;;;;;;7.41;84.51;102433.97;5075881;28;20086;-77
2022/03/28 07:39:24;;;;;;;35.88;14.82;;;;;;;7.55;84.61;102424.81;5076783;28;20036;-78
2022/03/28 07:41:50;;;;;;;28.50;14.48;;;;;;;7.63;84.14;102425.06;5076173;28;20360;-77
2022/03/28 07:44:16;;;;;;;30.80;14.88;;;;;;;7.72;82.87;102421.66;5074900;28;20174;-77
2022/03/28 07:46:41;;;;;;;30.42;14.18;;;;;;;7.77;82.87;102419.44;5075341;28;20452;-76
2022/03/28 07:49:07;;;;;;;38.15;16.20;;;;;;;7.82;83.15;102417.25;5073979;28;20028;-76
2022/03/28 07:51:33;;;;;;;47.90;17.65;;;;;;;7.85;83.04;102418.81;5075260;28;20020;-77
2022/03/28 07:53:58;;;;;;;36.60;17.38;;;;;;;7.95;82.93;102418.91;5073728;28;20486;-77
2022/03/28 07:56:24;;;;;;;39.42;16.33;;;;;;;8.10;82.51;102420.31;5074637;28;20106;-79
2022/03/28 07:58:49;;;;;;;37.67;15.50;;;;;;;8.35;83.17;102413.78;5074460;28;20039;-77
2022/03/28 08:01:14;;;;;;;35.75;17.55;;;;;;;8.78;81.43;102415.53;5058647;28;20025;-76
2022/03/28 08:03:40;;;;;;;33.85;16.35;;;;;;;9.16;79.58;102414.03;5059059;28;20055;-76
2022/03/28 08:06:05;;;;;;;32.38;15.18;;;;;;;9.39;76.77;102412.00;5057037;28;20116;-76
2022/03/28 08:08:32;;;;;;;35.85;14.63;;;;;;;9.53;75.60;102405.41;5071721;28;20048;-77
2022/03/28 08:10:58;;;;;;;29.73;13.60;;;;;;;9.60;74.80;102411.94;5072790;28;20388;-76
2022/03/28 08:13:23;;;;;;;29.52;13.57;;;;;;;9.97;75.37;102414.00;5074821;28;20037;-75
2022/03/28 08:15:48;;;;;;;28.13;15.00;;;;;;;10.90;71.42;102412.56;5073892;28;20028;-75
2022/03/28 08:18:15;;;;;;;26.25;13.27;;;;;;;11.21;68.79;102414.03;5073321;28;20039;-75
2022/03/28 08:20:42;;;;;;;25.15;14.25;;;;;;;11.08;68.57;102410.81;5074189;28;20032;-76
2022/03/28 08:23:08;;;;;;;32.42;15.73;;;;;;;10.99;69.54;102409.00;5073936;28;20029;-75
2022/03/28 08:25:33;;;;;;;32.97;15.70;;;;;;;10.86;69.43;102414.72;5073544;28;20035;-75
2022/03/28 08:27:58;;;;;;;37.35;14.88;;;;;;;10.80;70.41;102411.75;5072790;28;20030;-76
2022/03/28 08:30:24;;;;;;;29.50;14.90;;;;;;;11.00;70.89;102405.31;5072231;28;20043;-76
2022/03/28 08:32:49;;;;;;;33.20;14.65;;;;;;;11.96;68.10;102405.03;5073634;28;20100;-76
2022/03/28 08:35:15;;;;;;;26.60;13.02;;;;;;;12.93;65.08;102409.56;5074181;28;20091;-76
2022/03/28 08:37:40;;;;;;;23.63;11.27;;;;;;;14.59;59.53;102400.78;5067457;28;20029;-76
2022/03/28 08:40:06;;;;;;;26.48;12.80;;;;;;;15.62;54.94;102404.56;5065254;28;20057;-75
2022/03/28 08:42:33;;;;;;;24.70;13.02;;;;;;;15.94;53.38;102398.13;5062075;28;20113;-77
2022/03/28 08:44:58;;;;;;;26.95;13.20;;;;;;;16.15;51.71;102397.50;5060984;28;20024;-77
2022/03/28 08:47:24;;;;;;;22.65;12.68;;;;;;;16.39;52.46;102388.31;5071325;28;20037;-76
2022/03/28 08:49:53;;;;;;;23.27;12.50;;;;;;;16.76;50.74;102382.00;5065253;28;20203;-76
2022/03/28 08:52:20;;;;;;;22.80;11.68;;;;;;;17.34;49.34;102391.22;5074080;28;20103;-76
2022/03/28 08:54:46;;;;;;;28.10;12.80;;;;;;;18.08;46.59;102392.97;5078531;28;20676;-76
2022/03/28 08:57:13;;;;;;;24.52;13.40;;;;;;;17.70;47.89;102378.72;5076707;28;20030;-77
2022/03/28 08:59:38;;;;;;;24.15;13.80;;;;;;;18.92;45.75;102378.59;5075607;28;20064;-76
2022/03/28 09:02:03;;;;;;;19.38;13.10;;;;;;;19.35;44.13;102389.31;5072884;28;20063;-77
2022/03/28 09:04:29;;;;;;;26.02;15.00;;;;;;;19.40;43.50;102389.56;5071561;28;20040;-77
2022/03/28 09:06:57;;;;;;;25.30;14.05;;;;;;;19.83;42.73;102385.78;5071653;28;20045;-77
2022/03/28 09:09:28;;;;;;;28.77;15.07;;;;;;;19.22;44.38;102392.00;5055951;28;20036;-76
2022/03/28 09:11:56;;;;;;;30.10;14.45;;;;;;;19.88;42.93;102392.31;5073536;28;20040;-76
2022/03/28 09:14:31;;;;;;;26.85;14.48;;;;;;;19.72;43.59;102392.66;5074797;28;20111;-76
2022/03/28 09:17:04;;;;;;;26.45;13.40;;;;;;;21.07;39.48;102387.09;5071618;28;20044;-76
2022/03/28 09:19:46;;;;;;;28.02;13.38;;;;;;;20.78;40.49;102394.72;5073936;28;20086;-77
2022/03/28 09:22:19;;;;;;;36.90;14.07;;;;;;;19.26;43.20;102396.00;5060669;28;20024;-77
2022/03/28 09:24:45;;;;;;;25.83;13.50;;;;;;;19.70;42.76;102386.59;5075087;28;20047;-77
2022/03/28 09:27:17;;;;;;;28.55;14.13;;;;;;;19.72;42.29;102382.59;5074830;28;20028;-77
2022/03/28 09:29:59;;;;;;;26.35;14.05;;;;;;;19.63;42.05;102385.69;5062438;28;20025;-78
2022/03/28 09:32:29;;;;;;;24.85;13.35;;;;;;;19.56;43.44;102374.72;5054451;28;20035;-77
2022/03/28 09:35:12;;;;;;;21.30;13.18;;;;;;;19.84;42.58;102376.53;5059466;28;20029;-78
2022/03/28 09:38:07;;;;;;;26.55;12.70;;;;;;;19.62;43.02;102375.81;5075737;28;20032;-76
2022/03/28 09:40:36;;;;;;;28.30;13.35;;;;;;;19.29;43.18;102371.03;5074417;28;20077;-78
2022/03/28 09:43:05;;;;;;;21.08;12.18;;;;;;;20.99;40.10;102369.84;5072889;28;20107;-76
2022/03/28 09:45:35;;;;;;;23.60;13.02;;;;;;;21.37;39.07;102357.28;5070191;28;20024;-77
2022/03/28 09:48:04;;;;;;;28.45;13.85;;;;;;;20.91;39.99;102361.03;5074985;28;20108;-77
2022/03/28 09:50:34;;;;;;;24.02;13.40;;;;;;;21.24;39.30;102356.28;5072845;28;20024;-77
2022/03/28 09:53:31;;;;;;;25.67;13.25;;;;;;;21.47;38.92;102360.44;5072449;28;20116;-77
2022/03/28 09:56:00;;;;;;;27.10;13.73;;;;;;;20.87;40.90;102354.28;5062419;28;20085;-78
2022/03/28 09:58:35;;;;;;;29.40;13.88;;;;;;;20.71;40.69;102350.94;5074142;28;20044;-78
2022/03/28 10:01:01;;;;;;;35.15;15.35;;;;;;;20.15;41.82;102345.91;5073841;28;20468;-77
2022/03/28 10:03:35;;;;;;;28.63;13.15;;;;;;;20.77;40.71;102344.63;5070838;28;20029;-76
2022/03/28 10:06:04;;;;;;;24.95;14.35;;;;;;;21.30;39.40;102337.28;5075219;28;20013;-75
2022/03/28 10:08:30;;;;;;;30.05;14.48;;;;;;;20.86;40.35;102338.94;5074011;28;20059;-77
2022/03/28 10:10:57;;;;;;;22.65;14.40;;;;;;;20.48;40.76;102342.31;5077629;28;20392;-76
2022/03/28 10:13:23;;;;;;;25.15;13.95;;;;;;;20.06;41.77;102341.66;5075825;28;20028;-76
2022/03/28 10:15:48;;;;;;;28.95;13.88;;;;;;;20.01;41.62;102333.25;5076084;28;20166;-74
2022/03/28 10:18:14;;;;;;;31.13;14.73;;;;;;;19.99;42.30;102330.75;5071657;28;20047;-76
2022/03/28 10:20:42;;;;;;;25.80;14.45;;;;;;;19.20;43.53;102321.25;5074326;28;20017;-76
2022/03/28 10:23:07;;;;;;;;;;;;;;;19.41;42.38;102325.75;5073200;28;20032;-76
2022/03/28 10:25:32;;;;;;;32.63;14.50;;;;;;;19.31;42.93;102317.09;5071161;28;19961;-77
2022/03/28 10:27:59;;;;;;;31.02;14.32;;;;;;;19.25;43.28;102323.38;5071741;28;20290;-77
2022/03/28 10:30:30;;;;;;;31.45;14.80;;;;;;;18.18;45.68;102316.34;5074215;28;20085;-77
2022/03/28 10:33:19;;;;;;;26.90;14.38;;;;;;;18.39;46.01;102302.69;5073308;28;20027;-75
2022/03/28 10:35:57;;;;;;;32.60;14.23;;;;;;;19.20;43.92;102309.50;5070885;28;20495;-77
2022/03/28 10:38:22;;;;;;;27.75;13.65;;;;;;;19.27;43.49;102304.88;5072315;28;20020;-78
2022/03/28 10:40:58;;;;;;;26.63;13.32;;;;;;;19.49;42.93;102302.88;5072763;28;20039;-78
2022/03/28 10:43:26;;;;;;;26.98;12.68;;;;;;;19.50;42.88;102299.91;5073043;28;20096;-78
2022/03/28 10:45:53;;;;;;;26.88;13.35;;;;;;;19.33;42.41;102301.34;5074546;28;20139;-76
2022/03/28 10:48:41;;;;;;;33.92;13.90;;;;;;;18.95;42.76;102296.34;5078641;28;20021;-79
2022/03/28 10:51:21;;;;;;;36.13;14.80;;;;;;;18.70;44.24;102289.69;5075756;28;20051;-79
2022/03/28 10:54:00;;;;;;;32.05;13.63;;;;;;;18.41;44.81;102288.88;5074837;28;20024;-80
2022/03/28 10:56:30;;;;;;;34.35;13.13;;;;;;;18.27;45.43;102284.34;5078702;28;20025;-79
2022/03/28 10:59:19;;;;;;;31.33;13.70;;;;;;;18.68;44.67;102283.59;5074714;28;20146;-78
2022/03/28 11:01:47;;;;;;;34.28;14.43;;;;;;;18.79;44.43;102280.31;5072866;28;20064;-76
2022/03/28 11:04:12;;;;;;;29.23;13.55;;;;;;;19.00;44.05;102280.22;5072040;28;20035;-78
2022/03/28 11:07:00;;;;;;;29.55;14.02;;;;;;;19.32;44.06;102274.25;5075552;28;20392;-75
2022/03/28 11:09:35;;;;;;;33.55;13.50;;;;;;;19.77;42.61;102272.69;5075551;28;20029;-77
2022/03/28 11:12:09;;;;;;;29.50;13.23;;;;;;;18.89;42.94;102269.88;5076077;28;20033;-78
2022/03/28 11:14:45;;;;;;;34.22;13.38;;;;;;;19.36;43.15;102268.19;5075641;28;20055;-76
2022/03/28 11:17:37;;;;;;;34.72;13.70;;;;;;;20.26;41.29;102265.97;5075522;28;20467;-78
2022/03/28 11:20:12;;;;;;;28.67;13.80;;;;;;;19.92;42.36;102272.50;5072195;28;20526;-77
2022/03/28 11:22:49;;;;;;;32.50;13.30;;;;;;;20.71;41.40;102266.13;5074986;28;20032;-78